sensor_id;sensor_type;location;lat;lon;timestamp;P1;durP1;ratioP1;P2;durP2;ratioP2
39102;SDS011;24847;48.218;16.414;2022-11-30T00:02:34;28.60;;;16.90;;
39102;SDS011;24847;48.218;16.414;2022-11-30T00:07:36;29.02;;;17.77;;
39102;SDS011;24847;48.218;16.414;2022-11-30T00:12:40;29.85;;;17.38;;
39102;SDS011;24847;48.218;16.414;2022-11-30T00:17:44;28.98;;;17.38;;
39102;SDS011;24847;48.218;16.414;2022-11-30T00:22:47;27.63;;;16.65;;
39102;SDS011;24847;48.218;16.414;2022-11-30T00:27:50;32.42;;;18.33;;
39102;SDS011;24847;48.218;16.414;2022-11-30T00:32:56;32.17;;;19.50;;
39102;SDS011;24847;48.218;16.414;2022-11-30T00:38:00;30.55;;;18.88;;
39102;SDS011;24847;48.218;16.414;2022-11-30T00:43:02;30.50;;;18.35;;
39102;SDS011;24847;48.218;16.414;2022-11-30T00:48:06;31.63;;;19.38;;
39102;SDS011;24847;48.218;16.414;2022-11-30T00:53:09;32.08;;;19.88;;
39102;SDS011;24847;48.218;16.414;2022-11-30T00:58:11;31.08;;;19.38;;
39102;SDS011;24847;48.218;16.414;2022-11-30T01:03:15;32.88;;;18.58;;
39102;SDS011;24847;48.218;16.414;2022-11-30T01:08:18;31.83;;;18.33;;
39102;SDS011;24847;48.218;16.414;2022-11-30T01:13:20;29.55;;;18.77;;
39102;SDS011;24847;48.218;16.414;2022-11-30T01:18:24;32.60;;;20.40;;
39102;SDS011;24847;48.218;16.414;2022-11-30T01:23:26;32.10;;;19.65;;
39102;SDS011;24847;48.218;16.414;2022-11-30T01:28:28;33.80;;;21.10;;
39102;SDS011;24847;48.218;16.414;2022-11-30T01:33:32;36.17;;;21.70;;
39102;SDS011;24847;48.218;16.414;2022-11-30T01:38:35;34.03;;;21.13;;
39102;SDS011;24847;48.218;16.414;2022-11-30T01:43:41;36.97;;;21.60;;
39102;SDS011;24847;48.218;16.414;2022-11-30T01:48:46;32.75;;;20.45;;
39102;SDS011;24847;48.218;16.414;2022-11-30T01:53:54;35.90;;;21.50;;
39102;SDS011;24847;48.218;16.414;2022-11-30T01:58:56;33.90;;;20.40;;
39102;SDS011;24847;48.218;16.414;2022-11-30T02:04:01;34.72;;;20.13;;
39102;SDS011;24847;48.218;16.414;2022-11-30T02:09:07;32.10;;;19.45;;
39102;SDS011;24847;48.218;16.414;2022-11-30T02:14:13;36.95;;;22.17;;
39102;SDS011;24847;48.218;16.414;2022-11-30T02:25:09;34.13;;;20.20;;
39102;SDS011;24847;48.218;16.414;2022-11-30T02:30:23;35.58;;;21.42;;
39102;SDS011;24847;48.218;16.414;2022-11-30T02:35:26;33.13;;;20.92;;
39102;SDS011;24847;48.218;16.414;2022-11-30T02:40:32;32.50;;;21.50;;
39102;SDS011;24847;48.218;16.414;2022-11-30T02:45:37;35.92;;;21.13;;
39102;SDS011;24847;48.218;16.414;2022-11-30T02:50:46;36.80;;;21.50;;
39102;SDS011;24847;48.218;16.414;2022-11-30T02:55:51;31.77;;;20.40;;
39102;SDS011;24847;48.218;16.414;2022-11-30T03:00:56;34.75;;;21.65;;
39102;SDS011;24847;48.218;16.414;2022-11-30T03:05:58;37.85;;;22.17;;
39102;SDS011;24847;48.218;16.414;2022-11-30T03:11:01;33.25;;;21.13;;
39102;SDS011;24847;48.218;16.414;2022-11-30T03:16:06;33.25;;;21.60;;
39102;SDS011;24847;48.218;16.414;2022-11-30T03:21:10;34.65;;;21.45;;
39102;SDS011;24847;48.218;16.414;2022-11-30T03:26:13;31.77;;;20.35;;
39102;SDS011;24847;48.218;16.414;2022-11-30T03:31:16;34.10;;;21.15;;
39102;SDS011;24847;48.218;16.414;2022-11-30T03:36:18;34.65;;;21.73;;
39102;SDS011;24847;48.218;16.414;2022-11-30T03:41:20;33.13;;;20.95;;
39102;SDS011;24847;48.218;16.414;2022-11-30T03:46:24;32.85;;;20.88;;
39102;SDS011;24847;48.218;16.414;2022-11-30T03:51:27;31.55;;;20.70;;
39102;SDS011;24847;48.218;16.414;2022-11-30T03:56:29;36.05;;;22.35;;
39102;SDS011;24847;48.218;16.414;2022-11-30T04:01:33;32.83;;;21.15;;
39102;SDS011;24847;48.218;16.414;2022-11-30T04:06:36;33.63;;;21.10;;
39102;SDS011;24847;48.218;16.414;2022-11-30T04:11:39;32.97;;;21.70;;
39102;SDS011;24847;48.218;16.414;2022-11-30T04:16:43;32.13;;;21.27;;
39102;SDS011;24847;48.218;16.414;2022-11-30T04:21:45;33.88;;;20.98;;
39102;SDS011;24847;48.218;16.414;2022-11-30T04:26:48;33.42;;;21.13;;
39102;SDS011;24847;48.218;16.414;2022-11-30T04:31:51;33.13;;;20.90;;
39102;SDS011;24847;48.218;16.414;2022-11-30T04:36:54;33.22;;;21.05;;
39102;SDS011;24847;48.218;16.414;2022-11-30T04:41:56;35.75;;;20.90;;
39102;SDS011;24847;48.218;16.414;2022-11-30T04:46:59;33.80;;;20.98;;
39102;SDS011;24847;48.218;16.414;2022-11-30T04:52:02;36.38;;;22.42;;
39102;SDS011;24847;48.218;16.414;2022-11-30T04:57:04;35.00;;;22.83;;
39102;SDS011;24847;48.218;16.414;2022-11-30T05:02:08;34.85;;;22.33;;
39102;SDS011;24847;48.218;16.414;2022-11-30T05:07:10;35.80;;;22.38;;
39102;SDS011;24847;48.218;16.414;2022-11-30T05:12:12;37.95;;;23.42;;
39102;SDS011;24847;48.218;16.414;2022-11-30T05:17:16;36.97;;;22.98;;
39102;SDS011;24847;48.218;16.414;2022-11-30T05:22:18;36.90;;;22.45;;
39102;SDS011;24847;48.218;16.414;2022-11-30T05:27:21;36.05;;;24.00;;
39102;SDS011;24847;48.218;16.414;2022-11-30T05:32:25;38.50;;;24.33;;
39102;SDS011;24847;48.218;16.414;2022-11-30T05:37:27;34.03;;;22.17;;
39102;SDS011;24847;48.218;16.414;2022-11-30T05:42:29;35.00;;;22.38;;
39102;SDS011;24847;48.218;16.414;2022-11-30T05:47:33;34.13;;;22.02;;
39102;SDS011;24847;48.218;16.414;2022-11-30T05:52:35;35.63;;;22.42;;
39102;SDS011;24847;48.218;16.414;2022-11-30T05:57:38;37.42;;;23.45;;
39102;SDS011;24847;48.218;16.414;2022-11-30T06:02:42;35.75;;;23.35;;
39102;SDS011;24847;48.218;16.414;2022-11-30T06:07:44;32.83;;;21.20;;
39102;SDS011;24847;48.218;16.414;2022-11-30T06:12:46;35.35;;;22.42;;
39102;SDS011;24847;48.218;16.414;2022-11-30T06:17:50;36.50;;;21.17;;
39102;SDS011;24847;48.218;16.414;2022-11-30T06:22:55;32.20;;;20.67;;
39102;SDS011;24847;48.218;16.414;2022-11-30T06:27:58;36.70;;;21.75;;
39102;SDS011;24847;48.218;16.414;2022-11-30T06:33:01;34.38;;;21.42;;
39102;SDS011;24847;48.218;16.414;2022-11-30T06:38:04;31.27;;;19.88;;
39102;SDS011;24847;48.218;16.414;2022-11-30T06:43:07;35.97;;;21.52;;
39102;SDS011;24847;48.218;16.414;2022-11-30T06:48:11;33.42;;;20.30;;
39102;SDS011;24847;48.218;16.414;2022-11-30T06:53:13;30.27;;;19.27;;
39102;SDS011;24847;48.218;16.414;2022-11-30T06:58:16;31.75;;;20.55;;
39102;SDS011;24847;48.218;16.414;2022-11-30T07:03:20;31.42;;;19.95;;
39102;SDS011;24847;48.218;16.414;2022-11-30T07:08:22;33.75;;;20.17;;
39102;SDS011;24847;48.218;16.414;2022-11-30T07:13:25;27.85;;;18.50;;
39102;SDS011;24847;48.218;16.414;2022-11-30T07:18:28;33.00;;;20.10;;
39102;SDS011;24847;48.218;16.414;2022-11-30T07:23:32;35.80;;;20.55;;
39102;SDS011;24847;48.218;16.414;2022-11-30T07:28:52;33.75;;;21.30;;
39102;SDS011;24847;48.218;16.414;2022-11-30T07:34:01;32.45;;;20.45;;
39102;SDS011;24847;48.218;16.414;2022-11-30T07:39:05;26.90;;;17.40;;
39102;SDS011;24847;48.218;16.414;2022-11-30T07:44:08;33.05;;;19.67;;
39102;SDS011;24847;48.218;16.414;2022-11-30T07:49:12;33.13;;;20.65;;
39102;SDS011;24847;48.218;16.414;2022-11-30T07:54:15;31.88;;;20.65;;
39102;SDS011;24847;48.218;16.414;2022-11-30T07:59:17;33.83;;;20.52;;
39102;SDS011;24847;48.218;16.414;2022-11-30T08:04:21;29.83;;;19.67;;
39102;SDS011;24847;48.218;16.414;2022-11-30T08:09:24;30.25;;;18.77;;
39102;SDS011;24847;48.218;16.414;2022-11-30T08:14:26;29.77;;;19.48;;
39102;SDS011;24847;48.218;16.414;2022-11-30T08:19:29;29.67;;;19.02;;
39102;SDS011;24847;48.218;16.414;2022-11-30T08:24:32;30.25;;;19.58;;
39102;SDS011;24847;48.218;16.414;2022-11-30T08:29:34;30.35;;;20.05;;
39102;SDS011;24847;48.218;16.414;2022-11-30T08:34:37;31.25;;;19.88;;
39102;SDS011;24847;48.218;16.414;2022-11-30T08:39:39;26.92;;;17.80;;
39102;SDS011;24847;48.218;16.414;2022-11-30T08:44:42;28.85;;;18.60;;
39102;SDS011;24847;48.218;16.414;2022-11-30T08:49:45;31.73;;;19.90;;
39102;SDS011;24847;48.218;16.414;2022-11-30T08:54:47;31.35;;;20.13;;
39102;SDS011;24847;48.218;16.414;2022-11-30T08:59:50;29.75;;;19.10;;
39102;SDS011;24847;48.218;16.414;2022-11-30T09:04:54;28.80;;;19.08;;
39102;SDS011;24847;48.218;16.414;2022-11-30T09:09:56;28.67;;;18.88;;
39102;SDS011;24847;48.218;16.414;2022-11-30T09:14:58;31.45;;;19.33;;
39102;SDS011;24847;48.218;16.414;2022-11-30T09:20:02;24.30;;;16.80;;
39102;SDS011;24847;48.218;16.414;2022-11-30T09:25:07;28.05;;;18.42;;
39102;SDS011;24847;48.218;16.414;2022-11-30T09:30:10;24.17;;;16.75;;
39102;SDS011;24847;48.218;16.414;2022-11-30T09:35:15;23.77;;;16.05;;
39102;SDS011;24847;48.218;16.414;2022-11-30T09:40:17;26.20;;;17.23;;
39102;SDS011;24847;48.218;16.414;2022-11-30T09:45:22;23.65;;;16.65;;
39102;SDS011;24847;48.218;16.414;2022-11-30T09:50:31;25.63;;;17.45;;
39102;SDS011;24847;48.218;16.414;2022-11-30T09:55:40;26.30;;;16.70;;
39102;SDS011;24847;48.218;16.414;2022-11-30T10:00:43;25.65;;;16.63;;
39102;SDS011;24847;48.218;16.414;2022-11-30T10:05:48;24.35;;;16.42;;
39102;SDS011;24847;48.218;16.414;2022-11-30T10:11:03;24.80;;;16.80;;
39102;SDS011;24847;48.218;16.414;2022-11-30T10:16:23;24.92;;;15.65;;
39102;SDS011;24847;48.218;16.414;2022-11-30T10:21:41;24.83;;;16.42;;
39102;SDS011;24847;48.218;16.414;2022-11-30T10:26:57;23.05;;;15.82;;
39102;SDS011;24847;48.218;16.414;2022-11-30T10:32:09;21.90;;;15.05;;
39102;SDS011;24847;48.218;16.414;2022-11-30T10:37:18;22.48;;;15.27;;
39102;SDS011;24847;48.218;16.414;2022-11-30T10:42:27;24.02;;;14.98;;
39102;SDS011;24847;48.218;16.414;2022-11-30T10:47:34;21.43;;;14.37;;
39102;SDS011;24847;48.218;16.414;2022-11-30T10:52:45;17.52;;;12.52;;
39102;SDS011;24847;48.218;16.414;2022-11-30T10:57:53;20.08;;;12.95;;
39102;SDS011;24847;48.218;16.414;2022-11-30T11:02:59;20.45;;;13.63;;
39102;SDS011;24847;48.218;16.414;2022-11-30T11:08:16;20.58;;;13.10;;
39102;SDS011;24847;48.218;16.414;2022-11-30T11:13:35;23.52;;;13.82;;
39102;SDS011;24847;48.218;16.414;2022-11-30T11:18:50;19.50;;;12.75;;
39102;SDS011;24847;48.218;16.414;2022-11-30T11:23:55;17.67;;;12.70;;
39102;SDS011;24847;48.218;16.414;2022-11-30T11:28:58;19.05;;;13.35;;
39102;SDS011;24847;48.218;16.414;2022-11-30T11:34:02;18.38;;;11.13;;
39102;SDS011;24847;48.218;16.414;2022-11-30T11:39:23;15.68;;;11.18;;
39102;SDS011;24847;48.218;16.414;2022-11-30T11:44:27;16.95;;;11.63;;
39102;SDS011;24847;48.218;16.414;2022-11-30T11:49:31;16.65;;;11.43;;
39102;SDS011;24847;48.218;16.414;2022-11-30T11:54:38;14.70;;;10.60;;
39102;SDS011;24847;48.218;16.414;2022-11-30T11:59:48;16.30;;;11.20;;
39102;SDS011;24847;48.218;16.414;2022-11-30T12:04:55;17.37;;;11.30;;
39102;SDS011;24847;48.218;16.414;2022-11-30T12:10:05;13.10;;;9.13;;
39102;SDS011;24847;48.218;16.414;2022-11-30T12:15:27;14.15;;;10.35;;
39102;SDS011;24847;48.218;16.414;2022-11-30T12:20:40;13.73;;;10.07;;
39102;SDS011;24847;48.218;16.414;2022-11-30T12:25:56;15.20;;;10.25;;
39102;SDS011;24847;48.218;16.414;2022-11-30T12:31:09;14.57;;;10.32;;
39102;SDS011;24847;48.218;16.414;2022-11-30T12:36:18;14.40;;;9.95;;
39102;SDS011;24847;48.218;16.414;2022-11-30T12:41:32;13.52;;;9.68;;
39102;SDS011;24847;48.218;16.414;2022-11-30T12:46:45;13.77;;;9.63;;
39102;SDS011;24847;48.218;16.414;2022-11-30T12:52:00;14.18;;;10.20;;
39102;SDS011;24847;48.218;16.414;2022-11-30T12:57:15;12.05;;;9.00;;
39102;SDS011;24847;48.218;16.414;2022-11-30T13:02:32;13.13;;;9.25;;
39102;SDS011;24847;48.218;16.414;2022-11-30T13:07:50;14.15;;;9.80;;
39102;SDS011;24847;48.218;16.414;2022-11-30T13:12:59;15.43;;;10.48;;
39102;SDS011;24847;48.218;16.414;2022-11-30T13:18:04;11.98;;;9.27;;
39102;SDS011;24847;48.218;16.414;2022-11-30T13:23:11;15.38;;;9.50;;
39102;SDS011;24847;48.218;16.414;2022-11-30T13:28:23;12.32;;;8.55;;
39102;SDS011;24847;48.218;16.414;2022-11-30T13:33:36;17.25;;;9.52;;
39102;SDS011;24847;48.218;16.414;2022-11-30T13:38:52;13.10;;;9.02;;
39102;SDS011;24847;48.218;16.414;2022-11-30T13:44:23;13.15;;;9.15;;
39102;SDS011;24847;48.218;16.414;2022-11-30T13:49:33;13.30;;;9.20;;
39102;SDS011;24847;48.218;16.414;2022-11-30T13:54:40;10.40;;;8.00;;
39102;SDS011;24847;48.218;16.414;2022-11-30T13:59:46;11.32;;;8.60;;
39102;SDS011;24847;48.218;16.414;2022-11-30T14:04:50;11.90;;;8.38;;
39102;SDS011;24847;48.218;16.414;2022-11-30T14:09:54;13.07;;;8.18;;
39102;SDS011;24847;48.218;16.414;2022-11-30T14:15:00;14.57;;;9.52;;
39102;SDS011;24847;48.218;16.414;2022-11-30T14:20:06;11.93;;;8.60;;
39102;SDS011;24847;48.218;16.414;2022-11-30T14:25:18;14.20;;;7.90;;
39102;SDS011;24847;48.218;16.414;2022-11-30T14:30:23;12.60;;;8.80;;
39102;SDS011;24847;48.218;16.414;2022-11-30T14:40:39;10.07;;;7.32;;
39102;SDS011;24847;48.218;16.414;2022-11-30T14:45:58;12.52;;;8.82;;
39102;SDS011;24847;48.218;16.414;2022-11-30T14:51:03;13.30;;;8.85;;
39102;SDS011;24847;48.218;16.414;2022-11-30T14:56:07;12.93;;;8.00;;
39102;SDS011;24847;48.218;16.414;2022-11-30T15:01:22;14.40;;;8.63;;
39102;SDS011;24847;48.218;16.414;2022-11-30T15:06:27;12.00;;;7.90;;
39102;SDS011;24847;48.218;16.414;2022-11-30T15:11:32;11.80;;;7.40;;
39102;SDS011;24847;48.218;16.414;2022-11-30T15:16:35;11.63;;;7.38;;
39102;SDS011;24847;48.218;16.414;2022-11-30T15:21:43;11.80;;;7.82;;
39102;SDS011;24847;48.218;16.414;2022-11-30T15:26:49;11.20;;;7.88;;
39102;SDS011;24847;48.218;16.414;2022-11-30T15:31:57;11.90;;;8.33;;
39102;SDS011;24847;48.218;16.414;2022-11-30T15:37:02;13.30;;;8.60;;
39102;SDS011;24847;48.218;16.414;2022-11-30T15:42:05;10.73;;;7.80;;
39102;SDS011;24847;48.218;16.414;2022-11-30T15:47:22;11.23;;;7.95;;
39102;SDS011;24847;48.218;16.414;2022-11-30T15:52:28;9.80;;;7.50;;
39102;SDS011;24847;48.218;16.414;2022-11-30T16:03:07;12.57;;;7.55;;
39102;SDS011;24847;48.218;16.414;2022-11-30T16:08:12;9.18;;;6.72;;
39102;SDS011;24847;48.218;16.414;2022-11-30T16:13:17;9.27;;;6.68;;
39102;SDS011;24847;48.218;16.414;2022-11-30T16:18:24;9.38;;;7.38;;
39102;SDS011;24847;48.218;16.414;2022-11-30T16:23:29;12.63;;;7.80;;
39102;SDS011;24847;48.218;16.414;2022-11-30T16:28:35;10.30;;;7.45;;
39102;SDS011;24847;48.218;16.414;2022-11-30T16:33:39;10.23;;;7.75;;
39102;SDS011;24847;48.218;16.414;2022-11-30T16:38:45;11.10;;;8.10;;
39102;SDS011;24847;48.218;16.414;2022-11-30T16:43:50;11.10;;;7.85;;
39102;SDS011;24847;48.218;16.414;2022-11-30T16:48:55;12.98;;;9.18;;
39102;SDS011;24847;48.218;16.414;2022-11-30T16:53:57;13.13;;;8.93;;
39102;SDS011;24847;48.218;16.414;2022-11-30T16:59:01;12.32;;;8.85;;
39102;SDS011;24847;48.218;16.414;2022-11-30T17:04:09;12.02;;;8.95;;
39102;SDS011;24847;48.218;16.414;2022-11-30T17:09:19;15.60;;;10.00;;
39102;SDS011;24847;48.218;16.414;2022-11-30T17:14:23;13.43;;;10.02;;
39102;SDS011;24847;48.218;16.414;2022-11-30T17:19:27;14.82;;;10.38;;
39102;SDS011;24847;48.218;16.414;2022-11-30T17:24:31;15.10;;;10.02;;
39102;SDS011;24847;48.218;16.414;2022-11-30T17:29:35;15.65;;;10.85;;
39102;SDS011;24847;48.218;16.414;2022-11-30T17:34:44;15.57;;;11.23;;
39102;SDS011;24847;48.218;16.414;2022-11-30T17:39:47;16.40;;;10.82;;
39102;SDS011;24847;48.218;16.414;2022-11-30T17:44:50;17.73;;;12.30;;
39102;SDS011;24847;48.218;16.414;2022-11-30T17:49:55;16.75;;;12.30;;
39102;SDS011;24847;48.218;16.414;2022-11-30T17:54:58;18.02;;;12.57;;
39102;SDS011;24847;48.218;16.414;2022-11-30T18:00:03;18.08;;;13.13;;
39102;SDS011;24847;48.218;16.414;2022-11-30T18:05:11;20.63;;;13.38;;
39102;SDS011;24847;48.218;16.414;2022-11-30T18:10:15;19.00;;;13.75;;
39102;SDS011;24847;48.218;16.414;2022-11-30T18:15:18;17.95;;;13.20;;
39102;SDS011;24847;48.218;16.414;2022-11-30T18:20:24;20.92;;;13.65;;
39102;SDS011;24847;48.218;16.414;2022-11-30T18:25:27;20.83;;;13.88;;
39102;SDS011;24847;48.218;16.414;2022-11-30T18:30:33;19.17;;;13.27;;
39102;SDS011;24847;48.218;16.414;2022-11-30T18:35:40;20.10;;;13.50;;
39102;SDS011;24847;48.218;16.414;2022-11-30T18:40:43;24.67;;;15.50;;
39102;SDS011;24847;48.218;16.414;2022-11-30T18:45:47;26.08;;;15.88;;
39102;SDS011;24847;48.218;16.414;2022-11-30T18:50:54;29.95;;;20.20;;
39102;SDS011;24847;48.218;16.414;2022-11-30T18:56:05;33.88;;;23.48;;
39102;SDS011;24847;48.218;16.414;2022-11-30T19:01:13;35.85;;;22.95;;
39102;SDS011;24847;48.218;16.414;2022-11-30T19:06:23;32.08;;;20.20;;
39102;SDS011;24847;48.218;16.414;2022-11-30T19:16:35;23.85;;;15.10;;
39102;SDS011;24847;48.218;16.414;2022-11-30T19:21:42;25.08;;;15.57;;
39102;SDS011;24847;48.218;16.414;2022-11-30T19:26:48;25.45;;;15.45;;
39102;SDS011;24847;48.218;16.414;2022-11-30T19:31:52;24.38;;;14.98;;
39102;SDS011;24847;48.218;16.414;2022-11-30T19:37:01;25.73;;;15.75;;
39102;SDS011;24847;48.218;16.414;2022-11-30T19:42:06;26.30;;;16.10;;
39102;SDS011;24847;48.218;16.414;2022-11-30T19:47:10;24.70;;;15.20;;
39102;SDS011;24847;48.218;16.414;2022-11-30T19:52:17;27.27;;;16.63;;
39102;SDS011;24847;48.218;16.414;2022-11-30T19:57:21;27.17;;;16.80;;
39102;SDS011;24847;48.218;16.414;2022-11-30T20:02:25;28.52;;;16.15;;
39102;SDS011;24847;48.218;16.414;2022-11-30T20:07:31;30.88;;;17.60;;
39102;SDS011;24847;48.218;16.414;2022-11-30T20:12:36;26.80;;;15.82;;
39102;SDS011;24847;48.218;16.414;2022-11-30T20:17:43;29.90;;;17.27;;
39102;SDS011;24847;48.218;16.414;2022-11-30T20:22:49;30.88;;;17.38;;
39102;SDS011;24847;48.218;16.414;2022-11-30T20:27:54;28.13;;;16.83;;
39102;SDS011;24847;48.218;16.414;2022-11-30T20:33:00;27.40;;;16.95;;
39102;SDS011;24847;48.218;16.414;2022-11-30T20:38:08;26.13;;;15.10;;
39102;SDS011;24847;48.218;16.414;2022-11-30T20:43:12;24.95;;;15.05;;
39102;SDS011;24847;48.218;16.414;2022-11-30T20:48:16;34.63;;;20.00;;
39102;SDS011;24847;48.218;16.414;2022-11-30T20:53:21;27.20;;;16.00;;
39102;SDS011;24847;48.218;16.414;2022-11-30T20:58:29;28.00;;;17.47;;
39102;SDS011;24847;48.218;16.414;2022-11-30T21:03:33;27.98;;;16.42;;
39102;SDS011;24847;48.218;16.414;2022-11-30T21:08:38;32.00;;;17.00;;
39102;SDS011;24847;48.218;16.414;2022-11-30T21:13:43;27.30;;;15.30;;
39102;SDS011;24847;48.218;16.414;2022-11-30T21:18:48;29.63;;;15.98;;
39102;SDS011;24847;48.218;16.414;2022-11-30T21:23:52;32.42;;;17.25;;
39102;SDS011;24847;48.218;16.414;2022-11-30T21:28:57;28.85;;;16.70;;
39102;SDS011;24847;48.218;16.414;2022-11-30T21:34:02;31.95;;;17.67;;
39102;SDS011;24847;48.218;16.414;2022-11-30T21:39:07;30.23;;;17.33;;
39102;SDS011;24847;48.218;16.414;2022-11-30T21:44:13;30.20;;;17.23;;
39102;SDS011;24847;48.218;16.414;2022-11-30T21:49:16;30.50;;;17.00;;
39102;SDS011;24847;48.218;16.414;2022-11-30T21:54:20;29.88;;;16.80;;
39102;SDS011;24847;48.218;16.414;2022-11-30T21:59:22;34.20;;;19.83;;
39102;SDS011;24847;48.218;16.414;2022-11-30T22:04:24;35.10;;;19.15;;
39102;SDS011;24847;48.218;16.414;2022-11-30T22:09:28;32.20;;;17.67;;
39102;SDS011;24847;48.218;16.414;2022-11-30T22:14:31;29.27;;;17.27;;
39102;SDS011;24847;48.218;16.414;2022-11-30T22:19:35;31.80;;;16.90;;
39102;SDS011;24847;48.218;16.414;2022-11-30T22:24:39;30.42;;;16.92;;
39102;SDS011;24847;48.218;16.414;2022-11-30T22:29:42;29.90;;;16.58;;
39102;SDS011;24847;48.218;16.414;2022-11-30T22:34:44;32.58;;;18.30;;
39102;SDS011;24847;48.218;16.414;2022-11-30T22:39:47;30.58;;;17.58;;
39102;SDS011;24847;48.218;16.414;2022-11-30T22:44:50;29.20;;;17.45;;
39102;SDS011;24847;48.218;16.414;2022-11-30T22:49:52;29.17;;;17.58;;
39102;SDS011;24847;48.218;16.414;2022-11-30T22:54:56;29.13;;;17.38;;
39102;SDS011;24847;48.218;16.414;2022-11-30T22:59:59;30.27;;;16.55;;
39102;SDS011;24847;48.218;16.414;2022-11-30T23:05:01;31.02;;;17.77;;
39102;SDS011;24847;48.218;16.414;2022-11-30T23:10:06;29.70;;;17.10;;
39102;SDS011;24847;48.218;16.414;2022-11-30T23:15:10;29.85;;;17.77;;
39102;SDS011;24847;48.218;16.414;2022-11-30T23:20:12;32.20;;;18.67;;
39102;SDS011;24847;48.218;16.414;2022-11-30T23:25:16;33.20;;;18.35;;
39102;SDS011;24847;48.218;16.414;2022-11-30T23:30:18;33.80;;;18.05;;
39102;SDS011;24847;48.218;16.414;2022-11-30T23:35:21;30.85;;;17.77;;
39102;SDS011;24847;48.218;16.414;2022-11-30T23:40:26;32.33;;;17.75;;
39102;SDS011;24847;48.218;16.414;2022-11-30T23:45:28;30.13;;;17.92;;
39102;SDS011;24847;48.218;16.414;2022-11-30T23:50:30;32.45;;;19.35;;
39102;SDS011;24847;48.218;16.414;2022-11-30T23:55:34;29.63;;;17.45;;
